createdAt,value
2023-02-27T00:00:00.460Z,75.32
2023-02-27T00:03:12.030Z,75.11
2023-02-27T00:06:14.793Z,75.40
2023-02-27T00:09:18.392Z,75.63
2023-02-27T00:12:22.442Z,75.83
2023-02-27T00:15:25.476Z,75.88
2023-02-27T00:18:28.196Z,75.95
2023-02-27T00:21:31.145Z,76.09
2023-02-27T00:24:33.845Z,76.13
2023-02-27T00:27:37.960Z,76.14
2023-02-27T00:30:40.770Z,76.38
2023-02-27T00:33:43.615Z,76.29
2023-02-27T00:36:46.391Z,76.79
2023-02-27T00:39:50.303Z,76.52
2023-02-27T00:42:54.712Z,75.97
2023-02-27T00:45:57.623Z,76.26
2023-02-27T00:49:00.321Z,75.85
2023-02-27T00:52:03.558Z,76.21
2023-02-27T00:55:07.413Z,76.31
2023-02-27T00:58:14.546Z,76.38
2023-02-27T01:01:17.632Z,76.48
2023-02-27T01:04:20.535Z,76.55
2023-02-27T01:07:23.272Z,76.48
2023-02-27T01:10:29.319Z,76.48
2023-02-27T01:13:33.513Z,76.40
2023-02-27T01:16:38.587Z,76.27
2023-02-27T01:19:41.452Z,76.63
2023-02-27T01:22:44.160Z,77.23
2023-02-27T01:25:48.226Z,77.30
2023-02-27T01:28:52.365Z,77.49
2023-02-27T01:31:55.230Z,77.41
2023-02-27T01:34:58.039Z,76.04
2023-02-27T01:38:00.716Z,75.37
2023-02-27T01:41:04.505Z,73.39
2023-02-27T01:44:10.564Z,74.17
2023-02-27T01:47:13.239Z,74.42
2023-02-27T01:50:16.948Z,74.31
2023-02-27T01:53:24.975Z,74.45
2023-02-27T01:56:30.667Z,74.59
2023-02-27T01:59:36.540Z,75.01
2023-02-27T02:02:43.312Z,75.04
2023-02-27T02:05:47.282Z,75.64
2023-02-27T02:08:52.416Z,75.77
2023-02-27T02:11:56.220Z,76.06
2023-02-27T02:15:03.252Z,76.24
2023-02-27T02:18:20.796Z,76.26
2023-02-27T02:21:55.314Z,75.35
2023-02-27T02:25:33.522Z,75.49
2023-02-27T02:29:20.075Z,75.50
2023-02-27T02:32:56.288Z,75.32
2023-02-27T02:36:29.546Z,75.53
2023-02-27T02:40:18.117Z,75.72
2023-02-27T02:43:28.743Z,75.53
2023-02-27T02:46:41.155Z,75.61
2023-02-27T02:49:50.829Z,75.79
2023-02-27T02:53:04.923Z,75.74
2023-02-27T02:56:22.682Z,75.88
2023-02-27T02:59:31.735Z,75.73
2023-02-27T03:02:40.563Z,76.01
2023-02-27T03:05:52.762Z,75.81
2023-02-27T03:09:00.122Z,75.88
2023-02-27T03:12:09.091Z,76.22
2023-02-27T03:15:16.456Z,76.17
2023-02-27T03:18:32.418Z,76.07
2023-02-27T03:21:39.919Z,76.11
2023-02-27T03:24:46.226Z,76.33
2023-02-27T03:27:57.290Z,75.90
2023-02-27T03:31:06.370Z,76.14
2023-02-27T03:34:18.058Z,75.82
2023-02-27T03:37:40.513Z,75.64
2023-02-27T03:40:50.691Z,76.07
2023-02-27T03:44:02.273Z,75.78
2023-02-27T03:47:05.191Z,75.91
2023-02-27T03:50:09.381Z,75.93
2023-02-27T03:53:20.181Z,75.55
2023-02-27T03:56:30.281Z,75.72
2023-02-27T03:59:36.965Z,75.39
2023-02-27T04:02:40.956Z,74.16
2023-02-27T04:05:44.334Z,74.97
2023-02-27T04:08:57.866Z,75.04
2023-02-27T04:12:19.372Z,75.39
2023-02-27T04:15:32.262Z,73.80
2023-02-27T04:18:52.811Z,74.13
2023-02-27T04:22:13.226Z,74.29
2023-02-27T04:26:08.825Z,73.56
2023-02-27T04:29:19.136Z,74.40
2023-02-27T04:32:32.548Z,74.28
2023-02-27T04:35:40.288Z,74.70
2023-02-27T04:38:47.405Z,74.88
2023-02-27T04:41:55.498Z,74.07
2023-02-27T04:45:02.144Z,74.37
2023-02-27T04:48:11.605Z,74.93
2023-02-27T04:51:17.640Z,75.34
2023-02-27T04:54:30.965Z,75.27
2023-02-27T04:57:38.212Z,75.41
2023-02-27T05:00:45.300Z,75.75
2023-02-27T05:03:52.989Z,75.62
2023-02-27T05:06:57.433Z,75.63
2023-02-27T05:10:03.468Z,75.64
2023-02-27T05:13:17.075Z,75.49
2023-02-27T05:16:24.246Z,75.60
2023-02-27T05:19:28.424Z,75.75
2023-02-27T05:22:37.205Z,75.62
2023-02-27T05:25:51.460Z,75.75
2023-02-27T05:29:00.160Z,75.66
2023-02-27T05:32:12.683Z,75.85
2023-02-27T05:35:26.813Z,75.61
2023-02-27T05:38:34.718Z,75.70
2023-02-27T05:41:45.075Z,74.59
2023-02-27T05:44:55.418Z,75.17
2023-02-27T05:48:03.678Z,75.27
2023-02-27T05:51:10.946Z,75.34
2023-02-27T05:54:23.429Z,75.45
2023-02-27T05:57:33.237Z,75.92
2023-02-27T06:00:40.452Z,75.93
2023-02-27T06:03:44.690Z,75.62
2023-02-27T06:06:49.300Z,75.73
2023-02-27T06:09:52.139Z,76.18
2023-02-27T06:12:54.928Z,76.01
2023-02-27T06:15:57.683Z,76.41
2023-02-27T06:19:04.577Z,76.40
2023-02-27T06:22:10.022Z,76.54
2023-02-27T06:25:13.676Z,76.38
2023-02-27T06:28:16.513Z,76.24
2023-02-27T06:31:19.206Z,75.52
2023-02-27T06:34:21.882Z,75.79
2023-02-27T06:37:25.972Z,74.57
2023-02-27T06:40:28.721Z,74.88
2023-02-27T06:43:34.697Z,74.97
2023-02-27T06:46:37.472Z,75.36
2023-02-27T06:49:40.162Z,74.56
2023-02-27T06:52:44.185Z,74.44
2023-02-27T06:55:46.928Z,74.43
2023-02-27T06:58:50.102Z,74.73
2023-02-27T07:01:53.061Z,74.70
2023-02-27T07:04:55.807Z,75.49
2023-02-27T07:07:59.931Z,75.63
2023-02-27T07:11:08.760Z,75.54
2023-02-27T07:14:12.612Z,75.41
2023-02-27T07:17:18.576Z,74.69
2023-02-27T07:20:21.574Z,72.01
2023-02-27T07:23:28.694Z,70.26
2023-02-27T07:26:31.412Z,69.84
2023-02-27T07:29:35.980Z,69.80
2023-02-27T07:32:38.712Z,69.14
2023-02-27T07:35:41.464Z,67.63
2023-02-27T07:38:45.547Z,67.19
2023-02-27T07:41:48.187Z,66.16
2023-02-27T07:44:50.905Z,65.42
2023-02-27T07:47:53.565Z,66.16
2023-02-27T07:50:56.308Z,66.83
2023-02-27T07:54:00.359Z,65.98
2023-02-27T07:57:03.464Z,64.81
2023-02-27T08:00:08.126Z,64.31
2023-02-27T08:03:11.513Z,65.15
2023-02-27T08:06:22.482Z,63.49
2023-02-27T08:09:26.498Z,62.48
2023-02-27T08:12:29.151Z,62.86
2023-02-27T08:15:32.711Z,61.78
2023-02-27T08:18:49.369Z,60.60
2023-02-27T08:21:52.071Z,60.93
2023-02-27T08:24:59.072Z,61.67
2023-02-27T08:28:03.922Z,61.09
2023-02-27T08:31:07.094Z,60.32
2023-02-27T08:34:10.920Z,59.11
2023-02-27T08:37:14.907Z,58.41
2023-02-27T08:40:26.652Z,59.59
2023-02-27T08:43:31.581Z,59.47
2023-02-27T08:46:34.378Z,57.81
2023-02-27T08:49:37.076Z,58.11
2023-02-27T08:52:40.216Z,57.58
2023-02-27T08:55:45.063Z,57.16
2023-02-27T08:58:47.779Z,55.66
2023-02-27T09:01:50.627Z,56.44
2023-02-27T09:04:53.806Z,57.05
2023-02-27T09:08:00.370Z,56.11
2023-02-27T09:11:05.210Z,55.89
2023-02-27T09:14:10.040Z,55.27
2023-02-27T09:17:12.730Z,56.77
2023-02-27T09:20:18.591Z,55.58
2023-02-27T09:23:22.136Z,57.26
2023-02-27T09:26:41.961Z,56.70
2023-02-27T09:29:46.220Z,56.50
2023-02-27T09:32:49.046Z,55.12
2023-02-27T09:35:51.808Z,52.98
2023-02-27T09:38:54.930Z,53.09
2023-02-27T09:42:02.980Z,52.88
2023-02-27T09:45:08.460Z,52.72
2023-02-27T09:48:21.217Z,52.48
2023-02-27T09:51:24.823Z,54.05
2023-02-27T09:54:33.952Z,52.55
2023-02-27T09:57:46.480Z,53.43
2023-02-27T10:00:51.356Z,52.93
2023-02-27T10:04:28.974Z,52.22
2023-02-27T10:07:39.581Z,52.94
2023-02-27T10:10:55.053Z,51.92
2023-02-27T10:14:18.878Z,52.54
2023-02-27T10:17:28.686Z,53.04
2023-02-27T10:20:34.904Z,53.66
2023-02-27T10:23:43.088Z,52.83
2023-02-27T10:26:46.755Z,52.23
2023-02-27T10:29:51.878Z,52.09
2023-02-27T10:32:58.233Z,52.07
2023-02-27T10:36:03.116Z,51.66
2023-02-27T10:39:09.866Z,52.09
2023-02-27T10:42:14.949Z,51.80
2023-02-27T10:45:26.597Z,51.85
2023-02-27T10:48:29.557Z,51.15
2023-02-27T10:51:35.095Z,50.36
2023-02-27T10:54:38.674Z,49.85
2023-02-27T10:57:43.765Z,50.33
2023-02-27T11:04:30.849Z,48.44
2023-02-27T11:07:35.870Z,47.60
2023-02-27T11:10:38.561Z,47.50
2023-02-27T11:13:43.785Z,47.53
2023-02-27T11:16:52.437Z,47.27
2023-02-27T11:19:55.742Z,47.46
2023-02-27T11:23:04.771Z,47.37
2023-02-27T11:26:16.956Z,46.54
2023-02-27T11:29:21.387Z,46.64
2023-02-27T11:32:27.120Z,47.16
2023-02-27T11:35:32.098Z,47.12
2023-02-27T11:38:37.957Z,47.38
2023-02-27T11:41:44.843Z,48.30
2023-02-27T11:45:08.407Z,47.52
2023-02-27T11:48:19.616Z,48.13
2023-02-27T11:51:34.105Z,48.00
2023-02-27T11:54:40.506Z,48.59
2023-02-27T11:57:47.200Z,47.64
2023-02-27T12:00:55.791Z,47.69
2023-02-27T12:04:05.440Z,48.07
2023-02-27T12:07:18.590Z,48.32
2023-02-27T12:10:28.877Z,46.61
2023-02-27T12:13:37.153Z,46.27
2023-02-27T12:16:54.066Z,46.01
2023-02-27T12:20:22.982Z,45.00
2023-02-27T12:23:32.915Z,45.51
2023-02-27T12:26:43.202Z,44.50
2023-02-27T12:29:52.193Z,43.77
2023-02-27T12:33:02.552Z,44.97
2023-02-27T12:36:13.171Z,44.53
2023-02-27T12:39:20.153Z,45.19
2023-02-27T12:42:53.685Z,44.39
2023-02-27T12:46:08.707Z,45.37
2023-02-27T12:49:22.244Z,45.54
2023-02-27T12:52:39.076Z,43.90
2023-02-27T12:55:48.255Z,45.09
2023-02-27T12:58:59.336Z,43.99
2023-02-27T13:02:18.071Z,44.09
2023-02-27T13:05:32.394Z,44.62
2023-02-27T13:09:21.337Z,44.98
2023-02-27T13:12:28.522Z,45.06
2023-02-27T13:15:37.743Z,46.18
2023-02-27T13:18:45.505Z,44.89
2023-02-27T13:21:54.802Z,45.38
2023-02-27T13:25:02.933Z,44.55
2023-02-27T13:28:09.451Z,44.83
2023-02-27T13:31:21.107Z,44.58
2023-02-27T13:34:31.529Z,43.97
2023-02-27T13:37:56.043Z,43.67
2023-02-27T13:41:38.190Z,43.65
2023-02-27T13:44:42.885Z,43.51
2023-02-27T13:47:50.002Z,43.00
2023-02-27T13:50:53.250Z,43.52
2023-02-27T13:54:09.987Z,44.31
2023-02-27T13:57:22.875Z,43.67
2023-02-27T14:00:31.838Z,42.35
2023-02-27T14:03:34.645Z,41.06
2023-02-27T14:06:45.713Z,41.81
2023-02-27T14:09:51.700Z,42.95
2023-02-27T14:12:57.499Z,41.65
2023-02-27T14:16:00.893Z,42.00
2023-02-27T14:19:04.614Z,42.11
2023-02-27T14:22:39.922Z,42.34
2023-02-27T14:25:47.615Z,41.72
2023-02-27T14:28:55.735Z,41.22
2023-02-27T14:32:02.074Z,42.99
2023-02-27T14:35:07.143Z,42.52
2023-02-27T14:38:12.092Z,42.05
2023-02-27T14:41:38.063Z,41.49
2023-02-27T14:44:44.741Z,42.14
2023-02-27T14:47:47.927Z,42.60
2023-02-27T14:50:54.087Z,42.34
2023-02-27T14:54:06.405Z,41.85
2023-02-27T14:57:16.480Z,41.21
2023-02-27T15:00:37.841Z,39.84
2023-02-27T15:03:45.956Z,41.14
2023-02-27T15:06:51.045Z,41.69
2023-02-27T15:09:58.941Z,42.02
2023-02-27T15:13:03.638Z,41.29
2023-02-27T15:16:37.440Z,40.61
2023-02-27T15:19:49.850Z,40.75
2023-02-27T15:22:52.584Z,40.58
2023-02-27T15:25:57.013Z,41.18
2023-02-27T15:29:00.677Z,40.00
2023-02-27T15:32:05.715Z,39.68
2023-02-27T15:35:16.770Z,40.00
2023-02-27T15:38:27.123Z,39.36
2023-02-27T15:41:30.221Z,40.72
2023-02-27T15:44:38.509Z,41.20
2023-02-27T15:47:44.014Z,40.89
2023-02-27T15:50:48.670Z,40.57
2023-02-27T15:53:55.001Z,41.48
2023-02-27T15:56:58.537Z,41.36
2023-02-27T16:00:02.123Z,40.66
2023-02-27T16:03:07.470Z,41.18
2023-02-27T16:06:13.018Z,42.11
2023-02-27T16:09:25.846Z,42.15
2023-02-27T16:12:33.528Z,42.20
2023-02-27T16:15:38.261Z,41.09
2023-02-27T16:18:48.776Z,42.28
2023-02-27T16:22:06.552Z,42.16
2023-02-27T16:25:11.091Z,42.61
2023-02-27T16:28:15.057Z,42.04
2023-02-27T16:31:25.628Z,42.46
2023-02-27T16:34:44.775Z,42.42
2023-02-27T16:37:49.377Z,42.64
2023-02-27T16:40:52.532Z,42.96
2023-02-27T16:43:55.772Z,43.66
2023-02-27T16:46:59.616Z,43.56
2023-02-27T16:50:03.701Z,44.18
2023-02-27T16:53:06.381Z,44.32
2023-02-27T16:56:10.828Z,44.24
2023-02-27T16:59:35.022Z,43.97
2023-02-27T17:02:41.046Z,44.91
2023-02-27T17:05:45.107Z,45.32
2023-02-27T17:08:47.801Z,45.66
2023-02-27T17:11:50.932Z,45.93
2023-02-27T17:14:53.888Z,45.51
2023-02-27T17:17:56.544Z,44.94
2023-02-27T17:21:03.274Z,44.55
2023-02-27T17:24:07.058Z,45.94
2023-02-27T17:27:10.428Z,46.23
2023-02-27T17:30:15.473Z,46.40
2023-02-27T17:33:18.678Z,46.71
2023-02-27T17:36:24.309Z,46.47
2023-02-27T17:39:29.262Z,46.45
2023-02-27T17:42:32.108Z,46.37
2023-02-27T17:45:34.822Z,45.68
2023-02-27T17:48:38.167Z,46.32
2023-02-27T17:51:42.180Z,45.25
2023-02-27T17:54:45.127Z,46.09
2023-02-27T18:01:05.774Z,46.74
2023-02-27T18:04:11.267Z,47.15
2023-02-27T18:07:16.897Z,47.91
2023-02-27T18:10:25.371Z,47.78
2023-02-27T18:13:29.785Z,48.36
2023-02-27T18:16:32.823Z,48.81
2023-02-27T18:19:35.599Z,48.81
2023-02-27T18:22:39.675Z,49.11
2023-02-27T18:25:42.589Z,49.40
2023-02-27T18:28:49.026Z,49.55
2023-02-27T18:31:53.975Z,49.85
2023-02-27T18:34:56.813Z,49.41
2023-02-27T18:38:02.359Z,49.77
2023-02-27T18:41:06.748Z,49.81
2023-02-27T18:44:10.546Z,50.32
2023-02-27T18:47:16.322Z,50.80
2023-02-27T18:50:20.060Z,50.42
2023-02-27T18:53:24.034Z,50.47
2023-02-27T18:56:30.390Z,50.66
2023-02-27T18:59:36.092Z,50.81
2023-02-27T19:02:41.632Z,51.08
2023-02-27T19:05:52.075Z,50.95
2023-02-27T19:08:56.849Z,50.91
2023-02-27T19:12:00.318Z,51.60
2023-02-27T19:15:08.665Z,51.55
2023-02-27T19:18:11.289Z,51.67
2023-02-27T19:21:14.241Z,52.16
2023-02-27T19:24:18.333Z,52.38
2023-02-27T19:27:21.116Z,52.30
2023-02-27T19:30:25.373Z,53.22
2023-02-27T19:33:28.754Z,52.52
2023-02-27T19:36:35.511Z,52.40
2023-02-27T19:39:39.890Z,52.88
2023-02-27T19:42:44.649Z,53.49
2023-02-27T19:45:47.579Z,53.61
2023-02-27T19:48:54.009Z,53.65
2023-02-27T19:51:56.794Z,53.69
2023-02-27T19:55:00.829Z,53.57
2023-02-27T19:58:05.827Z,53.96
2023-02-27T20:01:09.801Z,53.67
2023-02-27T20:04:12.834Z,53.65
2023-02-27T20:07:15.613Z,53.32
2023-02-27T20:10:20.127Z,52.73
2023-02-27T20:13:22.960Z,53.47
2023-02-27T20:16:28.476Z,53.83
2023-02-27T20:19:31.311Z,52.47
2023-02-27T20:22:34.250Z,52.83
2023-02-27T20:25:38.335Z,53.55
2023-02-27T20:28:41.049Z,52.66
2023-02-27T20:31:46.250Z,52.68
2023-02-27T20:34:49.069Z,52.93
2023-02-27T20:37:53.997Z,52.21
2023-02-27T20:40:59.337Z,52.60
2023-02-27T20:44:02.299Z,53.00
2023-02-27T20:47:08.067Z,53.47
2023-02-27T20:50:12.548Z,52.76
2023-02-27T20:53:15.194Z,52.46
2023-02-27T20:56:21.455Z,51.77
2023-02-27T20:59:25.276Z,52.39
2023-02-27T21:02:28.300Z,52.81
2023-02-27T21:05:31.124Z,52.77
2023-02-27T21:08:36.474Z,52.93
2023-02-27T21:11:40.647Z,52.98
2023-02-27T21:14:44.508Z,52.17
2023-02-27T21:17:47.485Z,52.62
2023-02-27T21:20:53.750Z,52.89
2023-02-27T21:23:56.814Z,52.99
2023-02-27T21:27:00.980Z,53.96
2023-02-27T21:30:03.950Z,53.88
2023-02-27T21:33:07.216Z,54.28
2023-02-27T21:36:12.068Z,54.84
2023-02-27T21:39:17.479Z,55.49
2023-02-27T21:42:22.211Z,56.01
2023-02-27T21:45:24.891Z,55.90
2023-02-27T21:48:27.928Z,56.46
2023-02-27T21:51:39.994Z,56.16
2023-02-27T21:54:45.428Z,56.04
2023-02-27T21:57:49.642Z,56.19
2023-02-27T22:00:52.398Z,56.31
2023-02-27T22:03:55.645Z,57.81
2023-02-27T22:06:58.422Z,58.71
2023-02-27T22:10:01.347Z,58.93
2023-02-27T22:13:09.384Z,59.67
2023-02-27T22:16:13.463Z,60.37
2023-02-27T22:19:19.925Z,60.50
2023-02-27T22:22:22.845Z,61.01
2023-02-27T22:25:25.654Z,61.10
2023-02-27T22:28:30.689Z,61.40
2023-02-27T22:31:35.352Z,62.17
2023-02-27T22:34:38.125Z,62.51
2023-02-27T22:37:40.838Z,63.21
2023-02-27T22:40:46.744Z,63.52
2023-02-27T22:43:53.700Z,63.46
2023-02-27T22:46:56.859Z,63.70
2023-02-27T22:49:59.557Z,63.74
2023-02-27T22:53:02.286Z,63.75
2023-02-27T22:56:06.151Z,64.08
2023-02-27T22:59:10.376Z,64.15
2023-02-27T23:02:13.053Z,64.51
2023-02-27T23:05:15.887Z,64.29
2023-02-27T23:08:18.604Z,64.52
2023-02-27T23:11:24.526Z,65.04
2023-02-27T23:14:28.931Z,65.63
2023-02-27T23:17:33.130Z,66.05
2023-02-27T23:20:37.870Z,66.34
2023-02-27T23:23:41.163Z,66.90
2023-02-27T23:26:47.033Z,66.79
2023-02-27T23:29:54.091Z,67.29
2023-02-27T23:32:58.784Z,67.30
2023-02-27T23:36:01.744Z,67.49
2023-02-27T23:39:06.059Z,67.85
2023-02-27T23:42:19.137Z,68.15
2023-02-27T23:45:26.698Z,68.06
2023-02-27T23:48:29.439Z,68.59
2023-02-27T23:51:34.314Z,68.99
2023-02-27T23:54:40.219Z,69.17
2023-02-27T23:57:42.998Z,69.42
